Evansville (EVV/KEVV)

Map

Destinations

Information

Location
Evansville, IN
KEVV -
Bad Timezone: GMT-6
Local Time
GMT Time
00:11 / 12:11 am
Gates
Unassigned
No FAA reported delays
METAR KEVV 222354Z 05008KT 10SM CLR 08/M07 A3040 RMK AO2 SLP295 T00781067 10122 20078 53006
TAF KEVV 222324Z 2300/2324 05005KT P6SM BKN120 FM231600 15007KT P6SM OVC070
  • No charts available